createdAt,value
2022-08-25T00:00:10.929Z,71.43
2022-08-25T00:02:38.044Z,71.37
2022-08-25T00:05:05.684Z,72.65
2022-08-25T00:07:33.909Z,73.45
2022-08-25T00:10:00.752Z,73.91
2022-08-25T00:12:27.634Z,74.14
2022-08-25T00:14:55.347Z,75.02
2022-08-25T00:17:22.193Z,74.56
2022-08-25T00:19:53.843Z,75.72
2022-08-25T00:22:20.776Z,75.64
2022-08-25T00:24:47.654Z,76.22
2022-08-25T00:27:15.051Z,76.38
2022-08-25T00:29:53.747Z,76.50
2022-08-25T00:32:20.683Z,77.40
2022-08-25T00:34:47.547Z,77.01
2022-08-25T00:37:15.996Z,77.36
2022-08-25T00:39:55.453Z,77.52
2022-08-25T00:42:22.321Z,77.73
2022-08-25T00:44:49.318Z,78.23
2022-08-25T00:47:16.345Z,78.43
2022-08-25T00:49:59.093Z,78.85
2022-08-25T00:52:28.055Z,78.52
2022-08-25T00:55:09.164Z,79.03
2022-08-25T00:58:20.332Z,79.34
2022-08-25T01:00:51.125Z,79.59
2022-08-25T01:03:19.951Z,79.94
2022-08-25T01:05:47.859Z,79.53
2022-08-25T01:08:16.829Z,80.25
2022-08-25T01:10:45.218Z,80.14
2022-08-25T01:13:18.212Z,80.55
2022-08-25T01:15:47.087Z,80.71
2022-08-25T01:18:15.615Z,80.76
2022-08-25T01:20:42.589Z,80.96
2022-08-25T01:23:09.403Z,81.26
2022-08-25T01:25:54.390Z,80.87
2022-08-25T01:28:21.426Z,80.49
2022-08-25T01:30:49.574Z,81.40
2022-08-25T01:33:19.524Z,81.53
2022-08-25T01:35:47.292Z,81.58
2022-08-25T01:38:14.639Z,81.78
2022-08-25T01:40:43.033Z,82.39
2022-08-25T01:43:15.643Z,82.66
2022-08-25T01:45:47.217Z,82.52
2022-08-25T01:48:15.630Z,82.87
2022-08-25T01:50:44.246Z,82.47
2022-08-25T01:53:26.594Z,82.04
2022-08-25T01:56:01.923Z,82.21
2022-08-25T01:58:32.506Z,82.27
2022-08-25T02:01:03.247Z,82.42
2022-08-25T02:03:31.273Z,82.68
2022-08-25T02:06:01.549Z,83.04
2022-08-25T02:08:31.640Z,83.09
2022-08-25T02:10:58.502Z,83.40
2022-08-25T02:13:26.996Z,84.67
2022-08-25T02:16:01.387Z,87.13
2022-08-25T02:18:29.159Z,87.57
2022-08-25T02:20:56.108Z,88.43
2022-08-25T02:23:23.117Z,89.24
2022-08-25T02:25:50.131Z,89.85
2022-08-25T02:28:17.108Z,91.52
2022-08-25T02:30:44.410Z,92.87
2022-08-25T02:33:11.525Z,93.36
2022-08-25T02:35:41.873Z,94.65
2022-08-25T02:38:08.707Z,95.05
2022-08-25T02:40:36.131Z,95.19
2022-08-25T02:43:03.228Z,95.49
2022-08-25T02:45:40.374Z,95.52
2022-08-25T02:48:07.319Z,96.80
2022-08-25T02:50:34.975Z,97.10
2022-08-25T02:53:02.305Z,96.35
2022-08-25T02:55:42.222Z,96.85
2022-08-25T02:58:09.411Z,97.71
2022-08-25T03:00:37.173Z,97.89
2022-08-25T03:03:05.850Z,98.11
2022-08-25T03:05:40.313Z,98.44
2022-08-25T03:08:08.074Z,98.72
2022-08-25T03:10:35.684Z,97.48
2022-08-25T03:13:02.711Z,97.83
2022-08-25T03:15:39.998Z,96.99
2022-08-25T03:18:12.005Z,97.87
2022-08-25T03:20:41.107Z,98.19
2022-08-25T03:23:08.228Z,98.80
2022-08-25T03:26:02.571Z,98.93
2022-08-25T03:28:31.412Z,98.96
2022-08-25T03:30:59.335Z,98.63
2022-08-25T03:33:28.019Z,98.60
2022-08-25T03:35:55.714Z,97.76
2022-08-25T03:38:26.518Z,97.30
2022-08-25T03:40:56.296Z,96.98
2022-08-25T03:43:23.152Z,97.22
2022-08-25T03:45:50.154Z,97.90
2022-08-25T03:48:17.669Z,97.69
2022-08-25T03:50:51.940Z,98.07
2022-08-25T03:53:20.319Z,98.78
2022-08-25T03:55:47.873Z,98.41
2022-08-25T03:58:15.486Z,97.91
2022-08-25T04:00:42.544Z,97.89
2022-08-25T04:03:09.716Z,98.14
2022-08-25T04:05:40.146Z,99.25
2022-08-25T04:08:08.164Z,99.56
2022-08-25T04:10:36.671Z,100.00
2022-08-25T04:13:03.658Z,99.96
2022-08-25T04:15:44.458Z,99.60
2022-08-25T04:18:11.937Z,98.85
2022-08-25T04:20:41.299Z,99.58
2022-08-25T04:23:11.542Z,99.01
2022-08-25T04:25:46.167Z,99.04
2022-08-25T04:28:13.268Z,99.17
2022-08-25T04:30:43.867Z,99.49
2022-08-25T04:33:10.648Z,99.91
2022-08-25T04:35:43.470Z,100.00
2022-08-25T04:38:10.271Z,100.00
2022-08-25T04:40:37.230Z,100.00
2022-08-25T04:43:04.168Z,99.95
2022-08-25T04:45:40.661Z,100.00
2022-08-25T04:48:07.731Z,100.00
2022-08-25T04:50:39.673Z,100.00
2022-08-25T04:53:06.516Z,100.00
2022-08-25T04:55:47.276Z,100.00
2022-08-25T04:58:16.642Z,100.00
2022-08-25T05:00:44.282Z,100.00
2022-08-25T05:03:11.587Z,100.00
2022-08-25T05:05:42.547Z,100.00
2022-08-25T05:08:10.423Z,100.00
2022-08-25T05:10:42.438Z,100.00
2022-08-25T05:13:10.936Z,100.00
2022-08-25T05:15:51.252Z,100.00
2022-08-25T05:18:20.448Z,100.00
2022-08-25T05:20:47.505Z,100.00
2022-08-25T05:23:14.722Z,100.00
2022-08-25T05:25:44.714Z,100.00
2022-08-25T05:28:12.316Z,100.00
2022-08-25T05:30:41.042Z,100.00
2022-08-25T05:33:09.252Z,98.57
2022-08-25T05:35:42.304Z,98.86
2022-08-25T05:38:15.105Z,100.00
2022-08-25T05:40:42.978Z,100.00
2022-08-25T05:43:10.845Z,100.00
2022-08-25T05:45:43.051Z,100.00
2022-08-25T05:48:10.335Z,100.00
2022-08-25T05:50:41.675Z,100.00
2022-08-25T05:53:08.675Z,100.00
2022-08-25T05:55:40.755Z,100.00
2022-08-25T05:58:07.820Z,100.00
2022-08-25T06:00:39.873Z,100.00
2022-08-25T06:03:07.407Z,100.00
2022-08-25T06:05:40.740Z,100.00
2022-08-25T06:08:08.300Z,100.00
2022-08-25T06:10:36.132Z,100.00
2022-08-25T06:13:03.908Z,100.00
2022-08-25T06:15:41.350Z,100.00
2022-08-25T06:18:08.382Z,100.00
2022-08-25T06:20:36.474Z,100.00
2022-08-25T06:23:03.547Z,100.00
2022-08-25T06:25:39.316Z,100.00
2022-08-25T06:28:06.432Z,100.00
2022-08-25T06:30:33.518Z,100.00
2022-08-25T06:33:00.531Z,100.00
2022-08-25T06:35:37.455Z,100.00
2022-08-25T06:38:04.792Z,100.00
2022-08-25T06:40:32.098Z,100.00
2022-08-25T06:42:59.202Z,100.00
2022-08-25T06:45:32.410Z,100.00
2022-08-25T06:47:59.829Z,100.00
2022-08-25T06:50:26.912Z,100.00
2022-08-25T06:52:53.998Z,100.00
2022-08-25T06:55:21.360Z,100.00
2022-08-25T06:57:48.783Z,100.00
2022-08-25T07:00:16.748Z,100.00
2022-08-25T07:02:44.041Z,100.00
2022-08-25T07:05:16.954Z,100.00
2022-08-25T07:07:51.961Z,100.00
2022-08-25T07:10:21.096Z,100.00
2022-08-25T07:12:51.398Z,100.00
2022-08-25T07:15:20.425Z,100.00
2022-08-25T07:17:48.814Z,100.00
2022-08-25T07:20:19.114Z,100.00
2022-08-25T07:22:47.637Z,100.00
2022-08-25T07:25:17.698Z,100.00
2022-08-25T07:27:45.772Z,100.00
2022-08-25T07:30:13.938Z,100.00
2022-08-25T07:32:43.150Z,100.00
2022-08-25T07:35:18.857Z,100.00
2022-08-25T07:37:50.951Z,100.00
2022-08-25T07:40:23.675Z,100.00
2022-08-25T07:42:52.482Z,100.00
2022-08-25T07:45:21.233Z,100.00
2022-08-25T07:47:51.727Z,100.00
2022-08-25T07:50:19.792Z,100.00
2022-08-25T07:52:52.099Z,100.00
2022-08-25T07:55:22.255Z,100.00
2022-08-25T07:57:54.002Z,100.00
2022-08-25T08:00:21.683Z,100.00
2022-08-25T08:02:48.745Z,100.00
2022-08-25T08:05:15.775Z,100.00
2022-08-25T08:07:43.972Z,100.00
2022-08-25T08:13:01.081Z,100.00
2022-08-25T08:15:34.822Z,100.00
2022-08-25T08:18:03.231Z,100.00
2022-08-25T08:20:42.285Z,100.00
2022-08-25T08:23:09.656Z,100.00
2022-08-25T08:25:36.499Z,100.00
2022-08-25T08:28:03.551Z,99.81
2022-08-25T08:30:30.457Z,99.67
2022-08-25T08:33:09.676Z,100.00
2022-08-25T08:35:37.460Z,100.00
2022-08-25T08:38:13.544Z,100.00
2022-08-25T08:41:12.726Z,100.00
2022-08-25T08:43:43.190Z,100.00
2022-08-25T08:46:10.655Z,100.00
2022-08-25T08:48:43.565Z,100.00
2022-08-25T08:51:23.166Z,100.00
2022-08-25T08:53:57.343Z,100.00
2022-08-25T08:56:32.846Z,100.00
2022-08-25T08:59:06.341Z,100.00
2022-08-25T09:01:59.262Z,100.00
2022-08-25T09:04:39.553Z,100.00
2022-08-25T09:07:12.329Z,100.00
2022-08-25T09:09:42.952Z,100.00
2022-08-25T09:12:18.116Z,100.00
2022-08-25T09:15:16.803Z,100.00
2022-08-25T09:18:12.133Z,100.00
2022-08-25T09:21:09.033Z,100.00
2022-08-25T09:23:54.474Z,100.00
2022-08-25T09:26:39.855Z,100.00
2022-08-25T09:29:22.616Z,100.00
2022-08-25T09:31:53.939Z,100.00
2022-08-25T09:34:25.161Z,100.00
2022-08-25T09:36:53.523Z,100.00
2022-08-25T09:39:21.387Z,100.00
2022-08-25T09:41:56.342Z,100.00
2022-08-25T09:44:27.772Z,100.00
2022-08-25T09:47:05.285Z,100.00
2022-08-25T09:49:46.269Z,100.00
2022-08-25T09:52:28.359Z,99.94
2022-08-25T09:54:57.995Z,100.00
2022-08-25T09:57:33.029Z,100.00
2022-08-25T10:00:14.949Z,100.00
2022-08-25T10:02:44.264Z,100.00
2022-08-25T10:05:41.128Z,100.00
2022-08-25T10:08:24.817Z,100.00
2022-08-25T10:10:57.656Z,100.00
2022-08-25T10:13:35.479Z,100.00
2022-08-25T10:16:24.666Z,100.00
2022-08-25T10:19:06.820Z,100.00
2022-08-25T10:21:35.370Z,100.00
2022-08-25T10:24:03.241Z,100.00
2022-08-25T10:27:10.722Z,100.00
2022-08-25T10:30:06.184Z,100.00
2022-08-25T10:32:48.118Z,100.00
2022-08-25T10:35:47.166Z,100.00
2022-08-25T10:38:36.024Z,100.00
2022-08-25T10:41:18.196Z,100.00
2022-08-25T10:43:44.939Z,100.00
2022-08-25T10:46:24.165Z,100.00
2022-08-25T10:48:59.786Z,100.00
2022-08-25T10:51:26.520Z,100.00
2022-08-25T10:54:12.127Z,100.00
2022-08-25T10:56:43.460Z,100.00
2022-08-25T10:59:31.952Z,99.99
2022-08-25T11:02:27.273Z,99.80
2022-08-25T11:05:10.405Z,100.00
2022-08-25T11:07:43.135Z,100.00
2022-08-25T11:10:32.052Z,100.00
2022-08-25T11:13:03.039Z,100.00
2022-08-25T11:16:16.115Z,100.00
2022-08-25T11:18:51.962Z,100.00
2022-08-25T11:21:43.375Z,100.00
2022-08-25T11:24:21.989Z,100.00
2022-08-25T11:26:56.583Z,100.00
2022-08-25T11:29:31.163Z,99.93
2022-08-25T11:31:59.781Z,99.92
2022-08-25T11:34:32.679Z,100.00
2022-08-25T11:37:11.146Z,99.75
2022-08-25T11:40:00.513Z,100.00
2022-08-25T11:42:55.907Z,100.00
2022-08-25T11:45:46.992Z,100.00
2022-08-25T11:48:54.705Z,100.00
2022-08-25T11:51:30.948Z,100.00
2022-08-25T11:54:22.420Z,100.00
2022-08-25T11:56:55.576Z,100.00
2022-08-25T11:59:50.354Z,100.00
2022-08-25T12:02:44.976Z,100.00
2022-08-25T12:05:39.936Z,100.00
2022-08-25T12:08:25.904Z,99.70
2022-08-25T12:10:55.375Z,100.00
2022-08-25T12:13:39.293Z,100.00
2022-08-25T12:16:06.905Z,99.62
2022-08-25T12:18:34.004Z,99.77
2022-08-25T12:21:02.454Z,100.00
2022-08-25T12:23:44.927Z,100.00
2022-08-25T12:26:18.192Z,98.88
2022-08-25T12:28:59.739Z,96.29
2022-08-25T12:31:49.889Z,95.83
2022-08-25T12:34:31.808Z,96.03
2022-08-25T12:37:11.889Z,95.07
2022-08-25T12:39:46.657Z,95.16
2022-08-25T12:42:28.101Z,93.71
2022-08-25T12:45:21.298Z,93.07
2022-08-25T12:47:50.172Z,91.13
2022-08-25T12:50:39.667Z,91.60
2022-08-25T12:53:15.782Z,91.41
2022-08-25T12:55:50.209Z,90.99
2022-08-25T12:58:18.216Z,91.17
2022-08-25T13:01:23.062Z,91.92
2022-08-25T13:04:27.865Z,92.24
2022-08-25T13:07:08.296Z,92.09
2022-08-25T13:09:47.997Z,88.91
2022-08-25T13:12:19.130Z,88.98
2022-08-25T13:14:54.487Z,89.41
2022-08-25T13:17:34.165Z,87.95
2022-08-25T13:20:16.840Z,87.53
2022-08-25T13:22:57.424Z,86.96
2022-08-25T13:25:36.983Z,87.18
2022-08-25T13:28:10.913Z,86.07
2022-08-25T13:30:39.459Z,87.13
2022-08-25T13:33:22.062Z,86.60
2022-08-25T13:36:11.142Z,85.74
2022-08-25T13:38:38.987Z,86.56
2022-08-25T13:41:09.263Z,86.98
2022-08-25T13:43:38.350Z,86.24
2022-08-25T13:46:06.235Z,85.89
2022-08-25T13:48:38.014Z,84.54
2022-08-25T13:51:21.541Z,84.18
2022-08-25T13:53:55.940Z,83.81
2022-08-25T13:56:40.631Z,84.24
2022-08-25T13:59:20.449Z,83.95
2022-08-25T14:01:50.116Z,83.86
2022-08-25T14:04:33.211Z,84.34
2022-08-25T14:07:25.648Z,83.99
2022-08-25T14:10:08.024Z,83.15
2022-08-25T14:12:48.153Z,82.92
2022-08-25T14:15:22.418Z,82.37
2022-08-25T14:18:07.133Z,82.93
2022-08-25T14:20:36.443Z,83.87
2022-08-25T14:23:16.155Z,81.11
2022-08-25T14:25:46.680Z,79.29
2022-08-25T14:28:18.079Z,78.57
2022-08-25T14:30:51.927Z,78.84
2022-08-25T14:33:22.048Z,78.85
2022-08-25T14:35:52.686Z,80.22
2022-08-25T14:38:22.033Z,80.46
2022-08-25T14:40:50.472Z,80.02
2022-08-25T14:43:17.725Z,81.49
2022-08-25T14:45:51.094Z,79.87
2022-08-25T14:48:32.839Z,80.03
2022-08-25T14:51:00.536Z,80.13
2022-08-25T14:53:28.699Z,81.56
2022-08-25T14:55:58.989Z,80.50
2022-08-25T14:58:26.844Z,79.58
2022-08-25T15:00:54.889Z,80.42
2022-08-25T15:03:31.731Z,79.82
2022-08-25T15:06:00.595Z,80.30
2022-08-25T15:08:46.949Z,80.13
2022-08-25T15:11:15.109Z,81.49
2022-08-25T15:13:43.852Z,81.60
2022-08-25T15:16:33.820Z,82.99
2022-08-25T15:19:06.590Z,82.09
2022-08-25T15:21:34.568Z,82.09
2022-08-25T15:24:03.742Z,82.67
2022-08-25T15:26:31.392Z,81.75
2022-08-25T15:28:59.575Z,80.71
2022-08-25T15:31:27.386Z,80.79
2022-08-25T15:33:54.920Z,81.08
2022-08-25T15:36:25.118Z,81.27
2022-08-25T15:38:53.387Z,79.92
2022-08-25T15:41:27.099Z,80.34
2022-08-25T15:43:54.837Z,81.18
2022-08-25T15:46:25.384Z,81.74
2022-08-25T15:48:53.169Z,81.86
2022-08-25T15:51:20.123Z,81.06
2022-08-25T15:53:47.201Z,82.25
2022-08-25T15:56:26.486Z,81.92
2022-08-25T15:58:54.395Z,82.66
2022-08-25T16:01:24.946Z,82.17
2022-08-25T16:03:52.317Z,82.70
2022-08-25T16:06:19.281Z,82.14
2022-08-25T16:08:46.712Z,82.52
2022-08-25T16:11:22.271Z,82.53
2022-08-25T16:13:49.596Z,82.21
2022-08-25T16:16:17.955Z,81.83
2022-08-25T16:18:45.940Z,80.94
2022-08-25T16:21:15.603Z,80.74
2022-08-25T16:23:43.138Z,80.75
2022-08-25T16:26:12.940Z,80.95
2022-08-25T16:28:43.821Z,81.24
2022-08-25T16:31:13.282Z,81.47
2022-08-25T16:36:15.042Z,82.31
2022-08-25T16:38:43.537Z,82.57
2022-08-25T16:41:19.797Z,83.14
2022-08-25T16:43:47.767Z,83.15
2022-08-25T16:46:17.771Z,83.38
2022-08-25T16:48:45.036Z,83.17
2022-08-25T16:51:19.421Z,83.24
2022-08-25T16:54:08.512Z,83.48
2022-08-25T16:56:37.426Z,83.63
2022-08-25T16:59:07.590Z,83.30
2022-08-25T17:01:35.548Z,83.67
2022-08-25T17:04:03.865Z,83.96
2022-08-25T17:06:39.541Z,83.96
2022-08-25T17:09:07.855Z,84.58
2022-08-25T17:11:43.135Z,83.76
2022-08-25T17:14:11.112Z,83.76
2022-08-25T17:16:38.265Z,83.58
2022-08-25T17:19:08.343Z,83.50
2022-08-25T17:21:45.099Z,84.26
2022-08-25T17:24:12.481Z,83.79
2022-08-25T17:26:41.432Z,83.45
2022-08-25T17:29:08.608Z,83.27
2022-08-25T17:31:40.136Z,83.07
2022-08-25T17:34:13.092Z,83.35
2022-08-25T17:36:43.783Z,83.66
2022-08-25T17:39:13.399Z,84.16
2022-08-25T17:41:43.244Z,84.14
2022-08-25T17:44:10.055Z,84.17
2022-08-25T17:46:39.162Z,84.12
2022-08-25T17:49:12.152Z,83.84
2022-08-25T17:51:39.049Z,83.94
2022-08-25T17:54:05.992Z,84.17
2022-08-25T17:56:33.630Z,84.28
2022-08-25T17:59:00.580Z,84.62
2022-08-25T18:01:30.264Z,84.51
2022-08-25T18:03:59.068Z,84.61
2022-08-25T18:06:30.286Z,84.85
2022-08-25T18:08:59.971Z,85.50
2022-08-25T18:11:27.980Z,84.64
2022-08-25T18:13:56.026Z,84.39
2022-08-25T18:16:23.874Z,84.37
2022-08-25T18:18:52.846Z,84.43
2022-08-25T18:21:22.436Z,84.13
2022-08-25T18:23:49.646Z,83.86
2022-08-25T18:26:21.912Z,83.70
2022-08-25T18:28:52.584Z,83.85
2022-08-25T18:31:20.085Z,84.40
2022-08-25T18:33:47.555Z,83.67
2022-08-25T18:36:20.729Z,84.72
2022-08-25T18:39:07.021Z,84.05
2022-08-25T18:41:37.821Z,84.25
2022-08-25T18:44:05.254Z,83.99
2022-08-25T18:46:32.773Z,84.38
2022-08-25T18:49:01.430Z,84.47
2022-08-25T18:51:28.986Z,84.78
2022-08-25T18:54:01.056Z,83.93
2022-08-25T18:56:28.761Z,84.12
2022-08-25T18:58:56.084Z,83.80
2022-08-25T19:01:23.703Z,84.60
2022-08-25T19:03:51.080Z,84.12
2022-08-25T19:06:19.487Z,84.68
2022-08-25T19:08:48.615Z,84.77
2022-08-25T19:11:17.164Z,84.93
2022-08-25T19:13:49.109Z,84.94
2022-08-25T19:16:30.065Z,83.28
2022-08-25T19:18:57.302Z,83.86
2022-08-25T19:21:25.785Z,83.55
2022-08-25T19:23:53.813Z,83.57
2022-08-25T19:26:21.747Z,83.24
2022-08-25T19:28:49.991Z,84.05
2022-08-25T19:31:19.433Z,83.83
2022-08-25T19:33:50.281Z,84.13
2022-08-25T19:36:21.247Z,84.08
2022-08-25T19:38:52.595Z,84.21
2022-08-25T19:41:22.020Z,84.15
2022-08-25T19:43:56.513Z,84.16
2022-08-25T19:46:35.820Z,84.50
2022-08-25T19:49:18.337Z,85.08
2022-08-25T19:51:51.602Z,84.64
2022-08-25T19:54:25.673Z,84.49
2022-08-25T19:56:54.885Z,84.48
2022-08-25T19:59:40.813Z,85.36
2022-08-25T20:02:17.359Z,84.81
2022-08-25T20:04:49.711Z,85.02
2022-08-25T20:07:23.792Z,84.41
2022-08-25T20:09:52.911Z,83.61
2022-08-25T20:12:20.683Z,83.93
2022-08-25T20:14:51.451Z,84.06
2022-08-25T20:17:24.584Z,83.15
2022-08-25T20:19:59.175Z,82.44
2022-08-25T20:22:29.888Z,82.66
2022-08-25T20:24:59.417Z,83.03
2022-08-25T20:27:35.075Z,82.99
2022-08-25T20:30:04.450Z,83.09
2022-08-25T20:32:33.384Z,82.01
2022-08-25T20:35:01.939Z,82.10
2022-08-25T20:37:29.524Z,82.48
2022-08-25T20:39:56.658Z,82.52
2022-08-25T20:42:24.281Z,83.33
2022-08-25T20:44:52.267Z,82.99
2022-08-25T20:47:22.910Z,83.89
2022-08-25T20:49:50.501Z,83.86
2022-08-25T20:52:19.244Z,83.36
2022-08-25T20:54:49.601Z,83.22
2022-08-25T20:57:25.672Z,83.92
2022-08-25T20:59:54.986Z,83.61
2022-08-25T21:02:23.366Z,83.87
2022-08-25T21:04:50.846Z,83.68
2022-08-25T21:07:19.064Z,84.19
2022-08-25T21:09:46.812Z,84.11
2022-08-25T21:12:14.757Z,84.42
2022-08-25T21:14:42.520Z,84.62
2022-08-25T21:17:12.625Z,84.94
2022-08-25T21:19:40.426Z,85.17
2022-08-25T21:22:10.867Z,85.40
2022-08-25T21:24:39.382Z,84.70
2022-08-25T21:27:06.636Z,84.72
2022-08-25T21:29:33.899Z,84.83
2022-08-25T21:32:01.928Z,85.19
2022-08-25T21:34:29.774Z,85.63
2022-08-25T21:36:59.410Z,85.72
2022-08-25T21:39:29.836Z,86.17
2022-08-25T21:42:00.579Z,86.02
2022-08-25T21:44:29.185Z,86.37
2022-08-25T21:46:56.887Z,86.13
2022-08-25T21:49:25.323Z,86.10
2022-08-25T21:52:00.064Z,85.90
2022-08-25T21:54:29.181Z,85.90
2022-08-25T21:57:02.287Z,85.95
2022-08-25T21:59:32.765Z,85.89
2022-08-25T22:02:03.831Z,85.77
2022-08-25T22:04:32.648Z,86.35
2022-08-25T22:07:00.468Z,86.14
2022-08-25T22:09:28.695Z,86.39
2022-08-25T22:11:56.288Z,85.73
2022-08-25T22:14:24.377Z,86.24
2022-08-25T22:16:54.174Z,86.26
2022-08-25T22:19:21.691Z,86.38
2022-08-25T22:21:50.870Z,86.22
2022-08-25T22:24:18.223Z,85.94
2022-08-25T22:26:46.567Z,85.64
2022-08-25T22:29:16.222Z,85.49
2022-08-25T22:31:59.650Z,84.72
2022-08-25T22:34:32.801Z,84.98
2022-08-25T22:37:04.293Z,85.36
2022-08-25T22:39:32.523Z,85.38
2022-08-25T22:42:01.619Z,85.44
2022-08-25T22:44:28.519Z,85.37
2022-08-25T22:46:55.523Z,85.55
2022-08-25T22:49:22.804Z,85.54
2022-08-25T22:51:50.160Z,85.00
2022-08-25T22:54:18.077Z,85.70
2022-08-25T22:56:44.980Z,85.75
2022-08-25T22:59:13.972Z,86.05
2022-08-25T23:01:44.507Z,86.17
2022-08-25T23:04:12.142Z,85.73
2022-08-25T23:06:40.998Z,85.28
2022-08-25T23:09:10.979Z,84.96
2022-08-25T23:11:38.858Z,85.46
2022-08-25T23:14:08.444Z,85.32
2022-08-25T23:16:35.874Z,85.71
2022-08-25T23:19:02.804Z,85.56
2022-08-25T23:21:48.494Z,85.49
2022-08-25T23:24:29.166Z,86.07
2022-08-25T23:27:01.022Z,85.82
2022-08-25T23:29:28.315Z,86.29
2022-08-25T23:31:56.640Z,86.41
2022-08-25T23:34:24.570Z,86.44
2022-08-25T23:36:52.133Z,86.16
2022-08-25T23:39:19.081Z,86.53
2022-08-25T23:41:49.636Z,86.39
2022-08-25T23:44:17.078Z,86.15
2022-08-25T23:46:45.682Z,86.63
2022-08-25T23:49:14.882Z,87.15
2022-08-25T23:51:47.777Z,87.23
2022-08-25T23:54:16.420Z,87.27
2022-08-25T23:56:51.437Z,87.38
2022-08-25T23:59:24.051Z,87.22
